Aragon, Georgia
Current Conditions -  °F | °C
As of 5:55 PM on Friday 19 Dec 2014 (Local Time) from KPUJ Reporting Station
Scattered Clouds Scattered Clouds  
Wind Chill:   Ceiling: Unl
Heat Index:   Visibility: 10mi
Dew Point:   Wind: 6mph
Humidity: 71%   Direction: 340°NNW
Pressure: 30.12"   Gusts: NA
Location:  34.05°N, 85.06°W
Report Text: KPUJ 192255Z AUTO 34005KT 10SM SCT120 07/02 A3012 RMK AO2
Loading
Personal Weather Stations






























Interactive Weather Map New forecast layout! Learn more

10-Day Weather Forecast

Advertisements
Track Severe Weather on mobile